createdAt,value
2019-06-07T00:00:53.095Z,4.65
2019-06-07T00:03:29.493Z,5.35
2019-06-07T00:05:54.339Z,4.97
2019-06-07T00:08:28.545Z,9.88
2019-06-07T00:10:55.327Z,7.90
2019-06-07T00:13:24.997Z,6.20
2019-06-07T00:15:54.650Z,5.58
2019-06-07T00:18:26.118Z,6.25
2019-06-07T00:20:56.728Z,4.45
2019-06-07T00:23:26.460Z,5.45
2019-06-07T00:25:56.098Z,5.75
2019-06-07T00:28:25.735Z,7.55
2019-06-07T00:30:55.415Z,7.87
2019-06-07T00:33:25.342Z,5.60
2019-06-07T00:35:55.173Z,6.67
2019-06-07T00:38:24.810Z,5.62
2019-06-07T00:40:54.440Z,6.72
2019-06-07T00:43:28.102Z,10.45
2019-06-07T00:45:55.453Z,11.05
2019-06-07T00:48:32.075Z,6.53
2019-06-07T00:50:56.442Z,7.75
2019-06-07T00:53:31.814Z,7.08
2019-06-07T00:55:57.459Z,3.47
2019-06-07T00:58:29.277Z,5.03
2019-06-07T01:00:58.377Z,5.65
2019-06-07T01:06:27.963Z,8.45
2019-06-07T01:08:57.615Z,5.65
2019-06-07T01:14:39.764Z,6.42
2019-06-07T01:17:39.226Z,6.78
2019-06-07T01:23:51.782Z,10.85
2019-06-07T01:29:03.299Z,4.95
2019-06-07T01:34:56.375Z,7.87
2019-06-07T01:37:27.992Z,5.08
2019-06-07T01:43:32.748Z,6.92
2019-06-07T01:46:02.386Z,8.43
2019-06-07T01:48:48.849Z,5.08
2019-06-07T01:56:47.233Z,8.93
2019-06-07T01:59:17.783Z,4.65
2019-06-07T02:02:28.055Z,5.58
2019-06-07T02:04:55.710Z,6.92
2019-06-07T02:07:29.547Z,6.90
2019-06-07T02:09:56.716Z,9.55
2019-06-07T02:12:37.614Z,6.35
2019-06-07T02:14:57.739Z,7.95
2019-06-07T02:17:30.162Z,9.55
2019-06-07T02:19:58.755Z,6.70
2019-06-07T02:22:31.017Z,4.87
2019-06-07T02:25:34.698Z,8.38
2019-06-07T02:27:32.776Z,6.33
2019-06-07T02:30:35.203Z,7.62
2019-06-07T02:32:36.629Z,7.83
2019-06-07T02:35:08.809Z,6.45
2019-06-07T02:37:38.445Z,5.80
2019-06-07T02:40:10.103Z,7.92
2019-06-07T02:42:42.721Z,7.00
2019-06-07T02:45:11.602Z,6.60
2019-06-07T02:47:42.210Z,6.20
2019-06-07T02:50:12.679Z,6.78
2019-06-07T02:52:42.539Z,8.23
2019-06-07T02:55:13.055Z,9.68
2019-06-07T02:57:43.293Z,9.23
2019-06-07T03:00:41.513Z,6.47
2019-06-07T03:02:46.722Z,6.05
2019-06-07T03:05:16.372Z,6.72
2019-06-07T03:07:48.011Z,6.20
2019-06-07T03:10:18.607Z,6.40
2019-06-07T03:12:50.735Z,6.97
2019-06-07T03:15:32.768Z,9.48
2019-06-07T03:17:54.677Z,6.78
2019-06-07T03:20:27.592Z,9.03
2019-06-07T03:23:00.318Z,7.03
2019-06-07T03:25:35.678Z,7.87
2019-06-07T03:28:04.950Z,5.90
2019-06-07T03:30:40.062Z,8.88
2019-06-07T03:33:05.887Z,10.03
2019-06-07T03:35:37.608Z,9.28
2019-06-07T03:38:06.896Z,7.80
2019-06-07T03:40:39.590Z,7.67
2019-06-07T03:43:07.894Z,10.10
2019-06-07T03:45:41.198Z,8.58
2019-06-07T03:48:08.881Z,10.88
2019-06-07T03:50:41.982Z,8.58
2019-06-07T03:53:09.921Z,10.10
2019-06-07T03:55:41.265Z,10.50
2019-06-07T03:58:31.354Z,7.97
2019-06-07T04:00:43.651Z,10.32
2019-06-07T04:03:32.997Z,11.97
2019-06-07T04:05:46.029Z,9.95
2019-06-07T04:08:15.696Z,10.60
2019-06-07T04:10:59.207Z,10.08
2019-06-07T04:13:17.822Z,9.35
2019-06-07T04:15:47.516Z,13.85
2019-06-07T04:18:17.147Z,15.60
2019-06-07T04:20:46.801Z,13.83
2019-06-07T04:23:27.840Z,10.05
2019-06-07T04:25:47.922Z,11.03
2019-06-07T04:28:17.593Z,10.72
2019-06-07T04:30:47.258Z,12.63
2019-06-07T04:33:16.921Z,13.53
2019-06-07T04:35:46.571Z,12.88
2019-06-07T04:38:16.311Z,12.37
2019-06-07T04:40:47.267Z,11.60
2019-06-07T04:43:17.935Z,10.43
2019-06-07T04:45:51.449Z,11.33
2019-06-07T04:48:21.832Z,17.12
2019-06-07T04:50:53.256Z,13.13
2019-06-07T04:53:22.899Z,14.43
2019-06-07T04:55:52.462Z,8.50
2019-06-07T04:58:22.196Z,12.07
2019-06-07T05:00:57.817Z,10.10
2019-06-07T05:03:23.200Z,9.68
2019-06-07T05:05:52.834Z,9.50
2019-06-07T05:08:28.089Z,12.58
2019-06-07T05:10:53.937Z,11.63
2019-06-07T05:13:23.942Z,11.20
2019-06-07T05:15:53.605Z,11.88
2019-06-07T05:18:23.239Z,8.38
2019-06-07T05:20:52.936Z,9.95
2019-06-07T05:24:03.797Z,12.73
2019-06-07T05:25:53.914Z,10.13
2019-06-07T05:28:23.575Z,11.22
2019-06-07T05:31:05.039Z,10.10
2019-06-07T05:33:24.972Z,10.13
2019-06-07T05:35:54.610Z,8.65
2019-06-07T05:38:24.353Z,8.88
2019-06-07T05:40:54.019Z,7.70
2019-06-07T05:43:29.249Z,15.25
2019-06-07T05:45:58.883Z,10.48
2019-06-07T05:48:28.539Z,11.75
2019-06-07T05:50:58.212Z,10.28
2019-06-07T05:53:27.920Z,9.35
2019-06-07T05:55:57.673Z,8.90
2019-06-07T05:58:27.312Z,9.10
2019-06-07T06:01:40.854Z,7.87
2019-06-07T06:03:28.332Z,6.78
2019-06-07T06:05:57.966Z,8.93
2019-06-07T06:08:27.594Z,5.10
2019-06-07T06:10:57.254Z,6.33
2019-06-07T06:13:26.888Z,5.72
2019-06-07T06:16:02.056Z,6.85
2019-06-07T06:18:27.888Z,6.90
2019-06-07T06:21:19.375Z,5.85
2019-06-07T06:23:28.998Z,5.78
2019-06-07T06:25:58.668Z,4.30
2019-06-07T06:28:28.296Z,5.60
2019-06-07T06:30:57.933Z,7.33
2019-06-07T06:33:34.377Z,7.08
2019-06-07T06:35:58.867Z,14.38
2019-06-07T06:38:28.517Z,4.78
2019-06-07T06:41:14.730Z,4.70
2019-06-07T06:43:29.518Z,4.53
2019-06-07T06:45:59.183Z,6.80
2019-06-07T06:48:28.816Z,6.92
2019-06-07T06:50:58.476Z,5.12
2019-06-07T06:53:28.107Z,6.53
2019-06-07T06:55:57.735Z,6.53
2019-06-07T06:58:27.418Z,5.42
2019-06-07T07:01:06.688Z,9.28
2019-06-07T07:03:57.158Z,4.37
2019-06-07T07:06:24.694Z,8.95
2019-06-07T07:08:32.974Z,5.10
2019-06-07T07:11:02.619Z,5.87
2019-06-07T07:13:32.277Z,3.35
2019-06-07T07:16:01.873Z,5.05
2019-06-07T07:18:31.506Z,6.53
2019-06-07T07:21:01.138Z,2.58
2019-06-07T07:23:30.899Z,7.55
2019-06-07T07:26:00.595Z,2.92
2019-06-07T07:28:30.228Z,3.30
2019-06-07T07:30:59.934Z,4.12
2019-06-07T07:34:26.858Z,5.08
2019-06-07T07:36:22.722Z,4.12
2019-06-07T07:38:32.304Z,5.40
2019-06-07T07:41:13.781Z,5.60
2019-06-07T07:43:33.295Z,6.92
2019-06-07T07:46:27.972Z,6.72
2019-06-07T07:48:35.370Z,4.28
2019-06-07T07:51:05.190Z,5.40
2019-06-07T07:53:48.337Z,5.50
2019-06-07T07:56:06.769Z,7.15
2019-06-07T07:58:36.679Z,5.90
2019-06-07T08:01:10.788Z,3.72
2019-06-07T08:03:38.767Z,5.65
2019-06-07T08:06:08.395Z,4.33
2019-06-07T08:08:38.029Z,6.22
2019-06-07T08:11:07.710Z,4.47
2019-06-07T08:13:37.488Z,5.65
2019-06-07T08:16:13.967Z,5.30
2019-06-07T08:18:38.509Z,6.87
2019-06-07T08:21:23.078Z,7.60
2019-06-07T08:23:39.585Z,6.37
2019-06-07T08:26:09.254Z,6.33
2019-06-07T08:28:38.918Z,8.45
2019-06-07T08:31:08.594Z,7.50
2019-06-07T08:33:38.328Z,10.58
2019-06-07T08:36:19.778Z,7.17
2019-06-07T08:38:47.967Z,5.70
2019-06-07T08:41:12.288Z,5.33
2019-06-07T08:43:42.119Z,12.47
2019-06-07T08:46:11.804Z,10.25
2019-06-07T08:48:41.442Z,10.70
2019-06-07T08:51:12.128Z,7.65
2019-06-07T08:53:41.758Z,4.58
2019-06-07T08:56:11.883Z,6.75
2019-06-07T08:58:41.621Z,6.62
2019-06-07T09:01:11.293Z,8.00
2019-06-07T09:03:40.933Z,14.75
2019-06-07T09:06:41.518Z,7.33
2019-06-07T09:08:41.911Z,4.53
2019-06-07T09:11:12.064Z,5.00
2019-06-07T09:13:41.798Z,9.53
2019-06-07T09:16:12.432Z,11.48
2019-06-07T09:18:44.790Z,5.85
2019-06-07T09:21:13.431Z,7.75
2019-06-07T09:23:43.056Z,7.78
2019-06-07T09:26:18.329Z,10.50
2019-06-07T09:28:45.410Z,6.58
2019-06-07T09:31:14.990Z,9.18
2019-06-07T09:33:44.889Z,6.40
2019-06-07T09:36:14.729Z,13.03
2019-06-07T09:38:45.592Z,3.30
2019-06-07T09:41:15.266Z,28.85
2019-06-07T09:44:13.041Z,36.75
2019-06-07T09:46:16.976Z,6.92
2019-06-07T09:49:12.197Z,8.10
2019-06-07T09:51:20.607Z,5.10
2019-06-07T09:53:50.450Z,8.83
2019-06-07T09:56:20.081Z,5.08
2019-06-07T09:58:53.283Z,5.87
2019-06-07T10:01:21.663Z,4.53
2019-06-07T10:03:52.431Z,3.98
2019-06-07T10:06:22.357Z,4.83
2019-06-07T10:11:23.379Z,5.08
2019-06-07T10:13:53.027Z,4.75
2019-06-07T10:16:22.671Z,11.38
2019-06-07T10:18:53.527Z,8.63
2019-06-07T10:21:23.213Z,6.10
2019-06-07T10:23:52.878Z,7.70
2019-06-07T10:26:24.469Z,5.25
2019-06-07T10:28:54.286Z,8.68
2019-06-07T10:31:23.968Z,6.90
2019-06-07T10:33:53.633Z,4.47
2019-06-07T10:36:23.423Z,6.47
2019-06-07T10:38:53.098Z,11.12
2019-06-07T10:41:22.752Z,9.70
2019-06-07T10:43:52.400Z,6.58
2019-06-07T10:46:22.041Z,8.08
2019-06-07T10:48:51.740Z,11.03
2019-06-07T10:51:21.403Z,6.47
2019-06-07T10:53:51.037Z,15.93
2019-06-07T10:56:20.716Z,19.07
2019-06-07T10:58:50.407Z,8.28
2019-06-07T11:01:20.057Z,8.15
2019-06-07T11:03:49.788Z,9.20
2019-06-07T11:06:19.434Z,7.75
2019-06-07T11:08:49.066Z,7.25
2019-06-07T11:11:18.724Z,10.10
2019-06-07T11:13:48.363Z,7.65
2019-06-07T11:16:17.999Z,7.25
2019-06-07T11:18:47.646Z,24.27
2019-06-07T11:21:18.556Z,8.33
2019-06-07T11:23:48.336Z,9.95
2019-06-07T11:26:18.654Z,8.35
2019-06-07T11:28:48.398Z,12.18
2019-06-07T11:31:18.924Z,9.08
2019-06-07T11:33:48.716Z,10.70
2019-06-07T11:36:18.908Z,10.43
2019-06-07T11:38:48.625Z,8.80
2019-06-07T11:41:18.358Z,11.40
2019-06-07T11:43:48.039Z,7.10
2019-06-07T11:46:17.669Z,9.93
2019-06-07T11:48:47.327Z,7.37
2019-06-07T11:51:16.980Z,7.92
2019-06-07T11:53:46.594Z,6.15
2019-06-07T11:56:16.344Z,5.78
2019-06-07T11:58:46.012Z,8.73
2019-06-07T12:01:18.489Z,6.45
2019-06-07T12:03:47.785Z,7.78
2019-06-07T12:06:18.120Z,6.62
2019-06-07T12:08:47.890Z,9.23
2019-06-07T12:11:18.526Z,9.78
2019-06-07T12:13:48.166Z,6.87
2019-06-07T12:16:19.276Z,5.97
2019-06-07T12:18:49.214Z,18.07
2019-06-07T12:21:20.037Z,5.12
2019-06-07T12:23:49.674Z,4.15
2019-06-07T12:26:20.366Z,4.33
2019-06-07T12:28:50.337Z,4.37
2019-06-07T12:31:21.100Z,5.95
2019-06-07T12:33:51.101Z,9.03
2019-06-07T12:36:22.021Z,5.37
2019-06-07T12:38:51.757Z,6.40
2019-06-07T12:41:22.376Z,7.20
2019-06-07T12:43:53.131Z,9.30
2019-06-07T12:46:26.818Z,8.90
2019-06-07T12:48:54.119Z,14.33
2019-06-07T12:51:23.787Z,7.40
2019-06-07T12:53:53.414Z,7.97
2019-06-07T12:56:24.236Z,6.92
2019-06-07T12:58:55.098Z,6.70
2019-06-07T13:01:24.949Z,6.35
2019-06-07T13:03:54.672Z,6.03
2019-06-07T13:06:25.381Z,7.42
2019-06-07T13:08:55.012Z,6.20
2019-06-07T13:11:29.554Z,3.33
2019-06-07T13:13:56.483Z,5.70
2019-06-07T13:16:26.116Z,7.97
2019-06-07T13:18:55.698Z,7.97
2019-06-07T13:21:25.354Z,6.28
2019-06-07T13:23:55.027Z,6.65
2019-06-07T13:26:25.094Z,5.70
2019-06-07T13:28:54.818Z,5.35
2019-06-07T13:31:25.259Z,4.45
2019-06-07T13:33:55.067Z,4.80
2019-06-07T13:36:24.623Z,9.35
2019-06-07T13:38:55.255Z,4.05
2019-06-07T13:41:36.307Z,5.47
2019-06-07T13:43:56.263Z,5.97
2019-06-07T13:46:27.083Z,8.35
2019-06-07T13:48:58.028Z,7.53
2019-06-07T13:51:28.897Z,4.53
2019-06-07T13:53:58.754Z,5.53
2019-06-07T13:56:28.480Z,7.08
2019-06-07T13:58:58.086Z,4.90
2019-06-07T14:01:29.007Z,3.10
2019-06-07T14:03:59.295Z,5.75
2019-06-07T14:06:30.280Z,4.90
2019-06-07T14:08:59.995Z,2.30
2019-06-07T14:11:31.571Z,4.80
2019-06-07T14:14:01.427Z,5.25
2019-06-07T14:16:31.044Z,4.70
2019-06-07T14:19:00.703Z,3.67
2019-06-07T14:21:30.907Z,3.02
2019-06-07T14:24:00.644Z,5.10
2019-06-07T14:26:32.394Z,5.55
2019-06-07T14:29:01.737Z,7.15
2019-06-07T14:31:32.266Z,4.20
2019-06-07T14:34:02.419Z,5.60
2019-06-07T14:36:33.379Z,5.90
2019-06-07T14:39:03.217Z,4.17
2019-06-07T14:41:33.973Z,5.62
2019-06-07T14:44:03.598Z,4.17
2019-06-07T14:46:34.406Z,3.47
2019-06-07T14:49:05.168Z,3.12
2019-06-07T14:51:35.804Z,5.35
2019-06-07T14:54:05.459Z,5.00
2019-06-07T14:56:35.412Z,4.10
2019-06-07T14:59:05.237Z,5.28
2019-06-07T15:01:35.625Z,4.00
2019-06-07T15:04:05.972Z,4.90
2019-06-07T15:06:36.599Z,4.35
2019-06-07T15:09:07.747Z,4.30
2019-06-07T15:11:37.487Z,4.62
2019-06-07T15:14:07.116Z,5.65
2019-06-07T15:16:37.926Z,1.60
2019-06-07T15:19:07.810Z,4.22
2019-06-07T15:21:37.432Z,3.08
2019-06-07T15:24:08.078Z,2.37
2019-06-07T15:26:38.637Z,3.75
2019-06-07T15:29:08.440Z,3.77
2019-06-07T15:31:38.734Z,2.12
2019-06-07T15:34:08.457Z,2.27
2019-06-07T15:36:38.684Z,4.12
2019-06-07T15:39:08.729Z,4.75
2019-06-07T15:41:39.734Z,1.75
2019-06-07T15:44:09.821Z,2.10
2019-06-07T15:46:40.170Z,5.67
2019-06-07T15:49:09.975Z,3.47
2019-06-07T15:51:40.962Z,1.87
2019-06-07T15:54:11.830Z,3.50
2019-06-07T15:56:41.537Z,3.50
2019-06-07T15:59:12.423Z,2.35
2019-06-07T16:01:42.357Z,2.55
2019-06-07T16:04:12.078Z,4.28
2019-06-07T16:06:43.470Z,2.52
2019-06-07T16:09:13.339Z,2.58
2019-06-07T16:11:43.664Z,1.85
2019-06-07T16:14:14.106Z,5.60
2019-06-07T16:16:43.778Z,1.45
2019-06-07T16:19:13.601Z,3.22
2019-06-07T16:21:43.763Z,2.60
2019-06-07T16:24:13.430Z,7.58
2019-06-07T16:26:44.422Z,3.75
2019-06-07T16:29:15.321Z,3.15
2019-06-07T16:31:45.222Z,3.00
2019-06-07T16:34:14.977Z,4.47
2019-06-07T16:36:44.713Z,2.12
2019-06-07T16:39:14.330Z,5.53
2019-06-07T16:41:44.849Z,2.30
2019-06-07T16:44:14.694Z,3.30
2019-06-07T16:46:45.050Z,5.37
2019-06-07T16:49:14.789Z,11.60
2019-06-07T16:51:45.403Z,7.35
2019-06-07T16:54:15.159Z,11.45
2019-06-07T16:56:48.084Z,10.55
2019-06-07T16:59:17.388Z,6.37
2019-06-07T17:01:47.086Z,6.90
2019-06-07T17:04:16.767Z,4.92
2019-06-07T17:06:46.927Z,8.70
2019-06-07T17:09:17.807Z,5.22
2019-06-07T17:11:48.612Z,5.53
2019-06-07T17:14:18.380Z,7.40
2019-06-07T17:16:50.061Z,2.50
2019-06-07T17:19:19.382Z,6.90
2019-06-07T17:21:49.555Z,2.37
2019-06-07T17:24:19.229Z,6.50
2019-06-07T17:26:49.675Z,3.87
2019-06-07T17:29:19.396Z,4.42
2019-06-07T17:31:50.277Z,3.42
2019-06-07T17:34:20.052Z,5.22
2019-06-07T17:36:50.705Z,3.62
2019-06-07T17:39:20.511Z,5.70
2019-06-07T17:42:00.034Z,2.67
2019-06-07T17:44:21.502Z,3.22
2019-06-07T17:46:51.831Z,6.35
2019-06-07T17:49:21.558Z,4.08
2019-06-07T17:51:52.245Z,5.25
2019-06-07T17:54:22.065Z,5.45
2019-06-07T17:56:53.220Z,5.25
2019-06-07T17:59:24.128Z,5.12
2019-06-07T18:02:13.213Z,5.22
2019-06-07T18:04:25.177Z,8.33
2019-06-07T18:06:54.825Z,4.85
2019-06-07T18:09:25.659Z,2.58
2019-06-07T18:11:55.308Z,7.28
2019-06-07T18:14:25.048Z,4.53
2019-06-07T18:16:54.912Z,10.60
2019-06-07T18:19:24.642Z,5.92
2019-06-07T18:21:57.377Z,8.28
2019-06-07T18:24:25.596Z,5.47
2019-06-07T18:26:55.348Z,4.25
2019-06-07T18:29:24.979Z,4.15
2019-06-07T18:31:55.229Z,5.90
2019-06-07T18:34:26.040Z,6.75
2019-06-07T18:36:55.670Z,5.08
2019-06-07T18:39:25.302Z,4.60
2019-06-07T18:41:55.383Z,5.25
2019-06-07T18:44:25.205Z,5.12
2019-06-07T18:46:54.837Z,5.10
2019-06-07T18:49:24.463Z,5.92
2019-06-07T18:52:12.417Z,4.78
2019-06-07T18:54:42.056Z,11.55
2019-06-07T18:57:12.468Z,5.60
2019-06-07T18:59:42.283Z,10.68
2019-06-07T19:02:11.910Z,7.70
2019-06-07T19:04:41.546Z,8.23
2019-06-07T19:07:11.195Z,6.20
2019-06-07T19:09:40.829Z,7.80
2019-06-07T19:12:10.540Z,6.30
2019-06-07T19:14:40.087Z,6.03
2019-06-07T19:17:09.723Z,7.25
2019-06-07T19:19:39.430Z,7.50
2019-06-07T19:22:09.030Z,5.62
2019-06-07T19:24:38.660Z,4.20
2019-06-07T19:27:08.368Z,5.33
2019-06-07T19:29:38.018Z,9.80
2019-06-07T19:32:07.651Z,5.67
2019-06-07T19:34:37.279Z,5.58
2019-06-07T19:37:06.926Z,5.95
2019-06-07T19:39:36.562Z,8.03
2019-06-07T19:42:06.186Z,5.10
2019-06-07T19:44:35.838Z,10.05
2019-06-07T19:47:05.470Z,7.40
2019-06-07T19:49:35.115Z,7.90
2019-06-07T19:52:05.800Z,7.08
2019-06-07T19:54:35.450Z,6.47
2019-06-07T19:57:05.303Z,7.33
2019-06-07T19:59:34.936Z,4.92
2019-06-07T20:02:05.538Z,4.67
2019-06-07T20:04:35.168Z,6.22
2019-06-07T20:07:05.693Z,5.12
2019-06-07T20:09:35.539Z,11.75
2019-06-07T20:12:05.390Z,8.80
2019-06-07T20:14:35.035Z,7.40
2019-06-07T20:17:05.660Z,8.85
2019-06-07T20:19:35.387Z,9.05
2019-06-07T20:22:05.556Z,7.15
2019-06-07T20:24:37.932Z,19.80
2019-06-07T20:27:06.621Z,5.53
2019-06-07T20:29:36.256Z,9.65
2019-06-07T20:32:05.887Z,10.45
2019-06-07T20:34:35.552Z,11.03
2019-06-07T20:37:06.037Z,7.53
2019-06-07T20:39:36.536Z,6.45
2019-06-07T20:42:07.663Z,11.73
2019-06-07T20:44:38.499Z,7.70
2019-06-07T20:47:08.447Z,9.08
2019-06-07T20:49:39.229Z,8.73
2019-06-07T20:52:08.878Z,7.35
2019-06-07T20:54:38.691Z,8.90
2019-06-07T20:57:08.924Z,7.50
2019-06-07T20:59:39.654Z,9.88
2019-06-07T21:02:09.725Z,7.45
2019-06-07T21:04:39.484Z,10.03
2019-06-07T21:07:10.155Z,8.03
2019-06-07T21:09:39.930Z,9.40
2019-06-07T21:12:10.020Z,9.50
2019-06-07T21:14:39.846Z,8.73
2019-06-07T21:17:10.355Z,7.83
2019-06-07T21:19:40.152Z,10.03
2019-06-07T21:22:10.965Z,11.80
2019-06-07T21:24:40.645Z,9.50
2019-06-07T21:27:11.434Z,9.10
2019-06-07T21:29:41.106Z,11.57
2019-06-07T21:32:11.766Z,8.23
2019-06-07T21:34:41.573Z,6.25
2019-06-07T21:37:12.174Z,8.00
2019-06-07T21:39:41.930Z,8.70
2019-06-07T21:42:12.407Z,16.80
2019-06-07T21:44:42.131Z,14.03
2019-06-07T21:47:12.745Z,17.48
2019-06-07T21:49:43.507Z,13.45
2019-06-07T21:52:13.141Z,16.32
2019-06-07T21:54:42.780Z,18.40
2019-06-07T21:57:13.187Z,18.30
2019-06-07T21:59:42.953Z,20.25
2019-06-07T22:02:13.748Z,18.07
2019-06-07T22:04:44.218Z,17.70
2019-06-07T22:07:13.882Z,19.30
2019-06-07T22:09:43.557Z,17.02
2019-06-07T22:12:14.312Z,17.25
2019-06-07T22:14:45.152Z,19.65
2019-06-07T22:17:14.821Z,23.42
2019-06-07T22:19:45.462Z,19.55
2019-06-07T22:22:15.124Z,20.88
2019-06-07T22:24:44.779Z,22.17
2019-06-07T22:27:15.560Z,20.37
2019-06-07T22:29:46.357Z,18.57
2019-06-07T22:32:16.017Z,20.23
2019-06-07T22:34:45.658Z,19.27
2019-06-07T22:37:17.341Z,25.15
2019-06-07T22:39:46.662Z,19.15
2019-06-07T22:42:16.409Z,21.05
2019-06-07T22:44:46.044Z,20.10
2019-06-07T22:47:16.149Z,19.02
2019-06-07T22:49:45.920Z,24.12
2019-06-07T22:52:16.876Z,23.32
2019-06-07T22:54:46.931Z,18.80
2019-06-07T22:57:18.425Z,20.17
2019-06-07T22:59:48.136Z,17.87
2019-06-07T23:02:18.846Z,15.63
2019-06-07T23:04:49.540Z,16.80
2019-06-07T23:07:19.314Z,18.05
2019-06-07T23:09:49.018Z,16.12
2019-06-07T23:12:19.586Z,17.50
2019-06-07T23:14:49.304Z,17.15
2019-06-07T23:17:20.632Z,17.17
2019-06-07T23:19:51.427Z,14.00
2019-06-07T23:22:21.117Z,16.27
2019-06-07T23:24:50.752Z,13.95
2019-06-07T23:27:20.812Z,14.18
2019-06-07T23:29:50.553Z,17.27
2019-06-07T23:32:21.541Z,17.57
2019-06-07T23:34:51.360Z,14.93
2019-06-07T23:37:21.360Z,16.48
2019-06-07T23:39:51.130Z,11.68
2019-06-07T23:42:21.817Z,11.97
2019-06-07T23:44:51.682Z,17.00
2019-06-07T23:47:22.427Z,14.40
2019-06-07T23:49:52.217Z,14.43
2019-06-07T23:52:22.149Z,15.80
2019-06-07T23:54:51.801Z,13.32
2019-06-07T23:57:22.697Z,10.40
2019-06-07T23:59:52.373Z,13.05
